sensor_id;sensor_type;location;lat;lon;timestamp;pressure;altitude;pressure_sealevel;temperature;humidity
43181;BME280;28798;54.950;26.362;2022-09-09T00:03:19;1004.8;;;3.4;88.8
43181;BME280;28798;54.950;26.362;2022-09-09T00:23:25;1004.7;;;3.3;89.9
43181;BME280;28798;54.950;26.362;2022-09-09T00:28:19;1004.7;;;3.3;90.2
43181;BME280;28798;54.950;26.362;2022-09-09T00:33:29;1004.8;;;3.2;90.7
43181;BME280;28798;54.950;26.362;2022-09-09T00:38:38;1004.8;;;3.2;90.7
43181;BME280;28798;54.950;26.362;2022-09-09T00:43:27;1004.9;;;3.2;90.9
43181;BME280;28798;54.950;26.362;2022-09-09T00:48:31;1004.9;;;3.2;91
43181;BME280;28798;54.950;26.362;2022-09-09T00:58:17;1004.7;;;3.1;91.5
43181;BME280;28798;54.950;26.362;2022-09-09T01:03:56;1004.7;;;3.1;91.5
43181;BME280;28798;54.950;26.362;2022-09-09T01:13:34;1004.7;;;3.2;92.5
43181;BME280;28798;54.950;26.362;2022-09-09T01:18:17;1004.7;;;3.2;92.5
43181;BME280;28798;54.950;26.362;2022-09-09T01:23:56;1004.8;;;3.1;92.4
43181;BME280;28798;54.950;26.362;2022-09-09T01:28:29;1004.8;;;3.1;92.4
43181;BME280;28798;54.950;26.362;2022-09-09T01:33:33;1004.8;;;3.1;92.6
43181;BME280;28798;54.950;26.362;2022-09-09T01:38:27;1004.8;;;3.2;93
43181;BME280;28798;54.950;26.362;2022-09-09T01:43:18;1004.8;;;3.2;93
43181;BME280;28798;54.950;26.362;2022-09-09T01:48:18;1004.8;;;3.2;93.2
43181;BME280;28798;54.950;26.362;2022-09-09T01:53:45;1004.8;;;3.2;93.2
43181;BME280;28798;54.950;26.362;2022-09-09T01:58:22;1004.9;;;3.2;93
43181;BME280;28798;54.950;26.362;2022-09-09T02:03:23;1004.9;;;3.2;93
43181;BME280;28798;54.950;26.362;2022-09-09T02:08:26;1004.9;;;3.2;93
43181;BME280;28798;54.950;26.362;2022-09-09T02:13:23;1004.8;;;3.2;92.8
43181;BME280;28798;54.950;26.362;2022-09-09T02:18:18;1004.8;;;3.1;92.4
43181;BME280;28798;54.950;26.362;2022-09-09T02:23:27;1004.8;;;3.1;92.4
43181;BME280;28798;54.950;26.362;2022-09-09T02:28:17;1004.7;;;3.1;92.7
43181;BME280;28798;54.950;26.362;2022-09-09T02:33:28;1004.7;;;3.1;92.7
43181;BME280;28798;54.950;26.362;2022-09-09T02:43:17;1004.7;;;3.1;92.6
43181;BME280;28798;54.950;26.362;2022-09-09T02:48:18;1004.7;;;3.1;92.6
43181;BME280;28798;54.950;26.362;2022-09-09T02:53:39;1004.6;;;3;93
43181;BME280;28798;54.950;26.362;2022-09-09T02:58:27;1004.6;;;3;93
43181;BME280;28798;54.950;26.362;2022-09-09T03:03:18;1004.6;;;3;93
43181;BME280;28798;54.950;26.362;2022-09-09T03:13:27;1004.5;;;3;93.4
43181;BME280;28798;54.950;26.362;2022-09-09T03:18:17;1004.5;;;3;93.8
43181;BME280;28798;54.950;26.362;2022-09-09T03:23:27;1004.5;;;3;93.8
43181;BME280;28798;54.950;26.362;2022-09-09T03:28:23;1004.7;;;3.1;93.7
43181;BME280;28798;54.950;26.362;2022-09-09T03:33:17;1004.7;;;3.1;93.7
43181;BME280;28798;54.950;26.362;2022-09-09T03:43:17;1004.7;;;3.1;93.7
43181;BME280;28798;54.950;26.362;2022-09-09T03:48:18;1004.8;;;3;94.3
43181;BME280;28798;54.950;26.362;2022-09-09T03:53:37;1004.7;;;3;94.7
43181;BME280;28798;54.950;26.362;2022-09-09T03:58:27;1004.7;;;3;94.7
43181;BME280;28798;54.950;26.362;2022-09-09T04:03:17;1004.7;;;3;94.7
43181;BME280;28798;54.950;26.362;2022-09-09T04:28:26;1004.8;;;3;94.9
43181;BME280;28798;54.950;26.362;2022-09-09T04:33:18;1004.8;;;3;94.8
43181;BME280;28798;54.950;26.362;2022-09-09T04:58:17;1004.8;;;3;94.8
43181;BME280;28798;54.950;26.362;2022-09-09T05:03:17;1005.1;;;3;96.5
43181;BME280;28798;54.950;26.362;2022-09-09T05:08:27;1005.1;;;3.1;97.5
43181;BME280;28798;54.950;26.362;2022-09-09T05:13:17;1005;;;3.2;97.8
43181;BME280;28798;54.950;26.362;2022-09-09T05:18:40;1005;;;3.3;98.2
43181;BME280;28798;54.950;26.362;2022-09-09T05:23:17;1005;;;3.3;98.2
43181;BME280;28798;54.950;26.362;2022-09-09T05:28:17;1005;;;3.3;98.2
43181;BME280;28798;54.950;26.362;2022-09-09T05:38:17;1005;;;3.9;99.3
43181;BME280;28798;54.950;26.362;2022-09-09T05:43:29;1005;;;3.9;99.3
43181;BME280;28798;54.950;26.362;2022-09-09T05:48:17;1005;;;3.9;99.3
43181;BME280;28798;54.950;26.362;2022-09-09T05:53:27;1005;;;4.2;99
43181;BME280;28798;54.950;26.362;2022-09-09T05:58:17;1005;;;4.3;98.8
43181;BME280;28798;54.950;26.362;2022-09-09T06:03:17;1005;;;4.3;98.8
43181;BME280;28798;54.950;26.362;2022-09-09T06:13:17;1005;;;4.3;98.8
43181;BME280;28798;54.950;26.362;2022-09-09T06:18:18;1005.1;;;4.9;98.9
43181;BME280;28798;54.950;26.362;2022-09-09T06:23:17;1005.1;;;5.1;98.7
43181;BME280;28798;54.950;26.362;2022-09-09T06:28:29;1005.1;;;5.3;97.3
43181;BME280;28798;54.950;26.362;2022-09-09T06:33:17;1005.1;;;5.6;96.3
43181;BME280;28798;54.950;26.362;2022-09-09T06:38:27;1005.1;;;5.8;95.5
43181;BME280;28798;54.950;26.362;2022-09-09T06:43:17;1005.1;;;6;95.8
43181;BME280;28798;54.950;26.362;2022-09-09T06:48:17;1005;;;6;95.8
43181;BME280;28798;54.950;26.362;2022-09-09T06:53:17;1005.1;;;6.2;95.6
43181;BME280;28798;54.950;26.362;2022-09-09T06:58:28;1005.1;;;6.5;95.5
43181;BME280;28798;54.950;26.362;2022-09-09T07:03:38;1005.1;;;6.5;95.5
43181;BME280;28798;54.950;26.362;2022-09-09T07:13:17;1005;;;7.2;93.5
43181;BME280;28798;54.950;26.362;2022-09-09T07:18:18;1005;;;7.5;92.3
43181;BME280;28798;54.950;26.362;2022-09-09T07:23:17;1005;;;7.7;91.1
43181;BME280;28798;54.950;26.362;2022-09-09T07:28:29;1004.9;;;8;88
43181;BME280;28798;54.950;26.362;2022-09-09T07:33:27;1004.9;;;8.3;86.4
43181;BME280;28798;54.950;26.362;2022-09-09T07:38:27;1004.9;;;8.6;84
43181;BME280;28798;54.950;26.362;2022-09-09T07:43:17;1004.9;;;8.9;84.8
43181;BME280;28798;54.950;26.362;2022-09-09T07:48:28;1004.9;;;9.2;82.7
43181;BME280;28798;54.950;26.362;2022-09-09T07:53:17;1004.8;;;9.5;82.7
43181;BME280;28798;54.950;26.362;2022-09-09T07:58:27;1004.9;;;9.6;80.7
43181;BME280;28798;54.950;26.362;2022-09-09T08:03:23;1004.9;;;10;77.8
43181;BME280;28798;54.950;26.362;2022-09-09T08:08:17;1005;;;10.2;74.4
43181;BME280;28798;54.950;26.362;2022-09-09T08:13:17;1005;;;10.4;74.8
43181;BME280;28798;54.950;26.362;2022-09-09T08:18:17;1004.9;;;10.5;73.9
43181;BME280;28798;54.950;26.362;2022-09-09T08:23:40;1005;;;10.8;71.7
43181;BME280;28798;54.950;26.362;2022-09-09T08:28:38;1004.9;;;11.1;70.9
43181;BME280;28798;54.950;26.362;2022-09-09T08:33:27;1004.8;;;11.2;70.3
43181;BME280;28798;54.950;26.362;2022-09-09T08:43:18;1004.6;;;11.8;68.2
43181;BME280;28798;54.950;26.362;2022-09-09T08:48:30;1004.6;;;11.9;66.4
43181;BME280;28798;54.950;26.362;2022-09-09T08:53:19;1004.6;;;12.1;67.9
43181;BME280;28798;54.950;26.362;2022-09-09T08:58:19;1004.6;;;12.4;67.3
43181;BME280;28798;54.950;26.362;2022-09-09T09:08:36;1004.5;;;12.7;67.4
43181;BME280;28798;54.950;26.362;2022-09-09T09:13:24;1004.4;;;13.2;65.4
43181;BME280;28798;54.950;26.362;2022-09-09T09:18:17;1004.4;;;13.3;62.3
43181;BME280;28798;54.950;26.362;2022-09-09T09:23:22;1004.4;;;13.3;61.4
43181;BME280;28798;54.950;26.362;2022-09-09T09:28:19;1004.4;;;13.4;62.3
43181;BME280;28798;54.950;26.362;2022-09-09T09:33:20;1004.3;;;13.7;62
43181;BME280;28798;54.950;26.362;2022-09-09T09:38:28;1004.3;;;13.7;61.1
43181;BME280;28798;54.950;26.362;2022-09-09T09:43:19;1004.3;;;13.9;59.2
43181;BME280;28798;54.950;26.362;2022-09-09T09:48:29;1004.2;;;13.9;60.3
43181;BME280;28798;54.950;26.362;2022-09-09T09:53:26;1004.2;;;14.1;59.2
43181;BME280;28798;54.950;26.362;2022-09-09T09:58:33;1004.2;;;14.1;58.8
43181;BME280;28798;54.950;26.362;2022-09-09T10:03:32;1004.1;;;14.2;59.9
43181;BME280;28798;54.950;26.362;2022-09-09T10:08:26;1004.1;;;14.3;59.9
43181;BME280;28798;54.950;26.362;2022-09-09T10:28:25;1004.2;;;13.9;55.9
43181;BME280;28798;54.950;26.362;2022-09-09T10:33:51;1004.1;;;13.8;57.5
43181;BME280;28798;54.950;26.362;2022-09-09T10:48:23;1004;;;13.8;58.2
43181;BME280;28798;54.950;26.362;2022-09-09T10:54:02;1004;;;13.7;58.7
43181;BME280;28798;54.950;26.362;2022-09-09T10:58:19;1004.1;;;13.6;57.8
43181;BME280;28798;54.950;26.362;2022-09-09T11:03:19;1004.1;;;13.5;58.3
43181;BME280;28798;54.950;26.362;2022-09-09T11:08:19;1004.1;;;13.6;57.6
43181;BME280;28798;54.950;26.362;2022-09-09T11:13:37;1004.1;;;13.4;58.4
43181;BME280;28798;54.950;26.362;2022-09-09T11:18:19;1004.2;;;13.4;57.3
43181;BME280;28798;54.950;26.362;2022-09-09T11:23:39;1004.1;;;13.3;57.8
43181;BME280;28798;54.950;26.362;2022-09-09T11:28:28;1004.1;;;13.2;58.6
43181;BME280;28798;54.950;26.362;2022-09-09T11:33:25;1004.1;;;13;59.2
43181;BME280;28798;54.950;26.362;2022-09-09T11:38:21;1004.2;;;12.9;60.8
43181;BME280;28798;54.950;26.362;2022-09-09T11:43:31;1004.2;;;12.9;59
43181;BME280;28798;54.950;26.362;2022-09-09T11:48:35;1004.2;;;13;58.6
43181;BME280;28798;54.950;26.362;2022-09-09T11:58:25;1004.2;;;13;59.2
43181;BME280;28798;54.950;26.362;2022-09-09T12:03:50;1004.1;;;13;58.8
43181;BME280;28798;54.950;26.362;2022-09-09T12:08:28;1004.1;;;13.2;58.1
43181;BME280;28798;54.950;26.362;2022-09-09T12:13:29;1004.1;;;13.3;58.4
43181;BME280;28798;54.950;26.362;2022-09-09T12:18:34;1004.1;;;13.3;59.1
43181;BME280;28798;54.950;26.362;2022-09-09T12:23:23;1004;;;13.3;57
43181;BME280;28798;54.950;26.362;2022-09-09T12:28:39;1004;;;13.4;57
43181;BME280;28798;54.950;26.362;2022-09-09T12:33:38;1003.9;;;13.4;58.3
43181;BME280;28798;54.950;26.362;2022-09-09T12:38:22;1003.9;;;13.5;56.7
43181;BME280;28798;54.950;26.362;2022-09-09T12:43:26;1003.9;;;13.6;56.8
43181;BME280;28798;54.950;26.362;2022-09-09T12:48:18;1003.9;;;13.8;57.5
43181;BME280;28798;54.950;26.362;2022-09-09T12:53:30;1003.8;;;13.7;56.9
43181;BME280;28798;54.950;26.362;2022-09-09T12:58:18;1003.9;;;13.8;57.4
43181;BME280;28798;54.950;26.362;2022-09-09T13:03:27;1003.8;;;13.8;56.9
43181;BME280;28798;54.950;26.362;2022-09-09T13:09:02;1003.8;;;13.9;55.6
43181;BME280;28798;54.950;26.362;2022-09-09T13:13:31;1003.7;;;14;56.5
43181;BME280;28798;54.950;26.362;2022-09-09T13:18:18;1003.7;;;14;55
43181;BME280;28798;54.950;26.362;2022-09-09T13:23:18;1003.7;;;13.9;55.3
43181;BME280;28798;54.950;26.362;2022-09-09T13:28:18;1003.7;;;14;55.4
43181;BME280;28798;54.950;26.362;2022-09-09T13:33:40;1003.6;;;14.2;55.4
43181;BME280;28798;54.950;26.362;2022-09-09T13:38:27;1003.6;;;14.3;53.9
43181;BME280;28798;54.950;26.362;2022-09-09T13:43:42;1003.5;;;14.3;52.7
43181;BME280;28798;54.950;26.362;2022-09-09T13:48:17;1003.5;;;14.4;55
43181;BME280;28798;54.950;26.362;2022-09-09T13:53:27;1003.4;;;14.5;53.8
43181;BME280;28798;54.950;26.362;2022-09-09T13:58:31;1003.4;;;14.4;52
43181;BME280;28798;54.950;26.362;2022-09-09T14:03:18;1003.3;;;14.3;53.8
43181;BME280;28798;54.950;26.362;2022-09-09T14:08:28;1003.2;;;14.3;52.5
43181;BME280;28798;54.950;26.362;2022-09-09T14:13:41;1003.2;;;14.3;54.2
43181;BME280;28798;54.950;26.362;2022-09-09T14:18:18;1003.1;;;14.4;53.6
43181;BME280;28798;54.950;26.362;2022-09-09T14:23:26;1003.1;;;14.3;53.6
43181;BME280;28798;54.950;26.362;2022-09-09T14:28:26;1003.1;;;14.3;53.9
43181;BME280;28798;54.950;26.362;2022-09-09T14:33:30;1003;;;14.3;53.7
43181;BME280;28798;54.950;26.362;2022-09-09T14:38:40;1003;;;14.3;53.8
43181;BME280;28798;54.950;26.362;2022-09-09T14:43:18;1003;;;14.2;54.8
43181;BME280;28798;54.950;26.362;2022-09-09T14:48:18;1002.9;;;14.1;53
43181;BME280;28798;54.950;26.362;2022-09-09T14:53:18;1003;;;14;54.5
43181;BME280;28798;54.950;26.362;2022-09-09T14:58:30;1003;;;13.9;55.5
43181;BME280;28798;54.950;26.362;2022-09-09T15:03:26;1002.9;;;13.9;54.6
43181;BME280;28798;54.950;26.362;2022-09-09T15:08:30;1003;;;13.9;56.1
43181;BME280;28798;54.950;26.362;2022-09-09T15:13:18;1003;;;13.8;54.8
43181;BME280;28798;54.950;26.362;2022-09-09T15:18:18;1003;;;13.7;55
43181;BME280;28798;54.950;26.362;2022-09-09T15:23:18;1003;;;13.7;56.3
43181;BME280;28798;54.950;26.362;2022-09-09T15:28:18;1003.1;;;13.6;55.4
43181;BME280;28798;54.950;26.362;2022-09-09T15:33:28;1003.1;;;13.6;55.1
43181;BME280;28798;54.950;26.362;2022-09-09T15:38:30;1003.1;;;13.5;55.8
43181;BME280;28798;54.950;26.362;2022-09-09T15:43:18;1003.2;;;13.4;56.8
43181;BME280;28798;54.950;26.362;2022-09-09T15:48:32;1003.2;;;13.1;58.4
43181;BME280;28798;54.950;26.362;2022-09-09T15:53:42;1003.2;;;13;58.3
43181;BME280;28798;54.950;26.362;2022-09-09T15:58:32;1003.3;;;12.8;58.7
43181;BME280;28798;54.950;26.362;2022-09-09T16:03:18;1003.2;;;12.7;59.7
43181;BME280;28798;54.950;26.362;2022-09-09T16:08:33;1003.2;;;12.6;60.6
43181;BME280;28798;54.950;26.362;2022-09-09T16:13:50;1003.2;;;12.4;60.8
43181;BME280;28798;54.950;26.362;2022-09-09T16:18:32;1003.3;;;12.1;61.3
43181;BME280;28798;54.950;26.362;2022-09-09T16:23:18;1003.3;;;11.9;61.3
43181;BME280;28798;54.950;26.362;2022-09-09T16:28:52;1003.3;;;11.8;61.1
43181;BME280;28798;54.950;26.362;2022-09-09T16:33:30;1003.3;;;11.6;61.5
43181;BME280;28798;54.950;26.362;2022-09-09T16:38:18;1003.3;;;11.6;61.5
43181;BME280;28798;54.950;26.362;2022-09-09T16:43:28;1003.3;;;11.3;61.8
43181;BME280;28798;54.950;26.362;2022-09-09T16:48:18;1003.3;;;11.1;62.2
43181;BME280;28798;54.950;26.362;2022-09-09T16:53:44;1003.3;;;10.9;62.8
43181;BME280;28798;54.950;26.362;2022-09-09T16:58:18;1003.3;;;10.6;63.5
43181;BME280;28798;54.950;26.362;2022-09-09T17:03:42;1003.3;;;10.5;64.6
43181;BME280;28798;54.950;26.362;2022-09-09T17:08:18;1003.4;;;10.3;64.5
43181;BME280;28798;54.950;26.362;2022-09-09T17:13:18;1003.4;;;10.2;64.8
43181;BME280;28798;54.950;26.362;2022-09-09T17:18:18;1003.5;;;10.1;65
43181;BME280;28798;54.950;26.362;2022-09-09T17:23:40;1003.5;;;9.8;65.4
43181;BME280;28798;54.950;26.362;2022-09-09T17:28:38;1003.5;;;9.6;65.5
43181;BME280;28798;54.950;26.362;2022-09-09T17:33:33;1003.5;;;9.4;65.8
43181;BME280;28798;54.950;26.362;2022-09-09T17:43:40;1003.5;;;9.3;66.6
43181;BME280;28798;54.950;26.362;2022-09-09T17:48:26;1003.7;;;9.1;67.3
43181;BME280;28798;54.950;26.362;2022-09-09T17:53:41;1003.6;;;8.9;67.6
43181;BME280;28798;54.950;26.362;2022-09-09T17:58:18;1003.6;;;8.9;67.6
43181;BME280;28798;54.950;26.362;2022-09-09T18:03:18;1003.6;;;8.7;68
43181;BME280;28798;54.950;26.362;2022-09-09T18:08:18;1003.7;;;8.6;68.6
43181;BME280;28798;54.950;26.362;2022-09-09T18:13:26;1003.7;;;8.5;69.2
43181;BME280;28798;54.950;26.362;2022-09-09T18:18:18;1003.7;;;8.4;69.8
43181;BME280;28798;54.950;26.362;2022-09-09T18:23:35;1003.7;;;8.2;69.8
43181;BME280;28798;54.950;26.362;2022-09-09T18:28:26;1003.7;;;8.1;70.1
43181;BME280;28798;54.950;26.362;2022-09-09T18:33:18;1003.7;;;8.1;70.1
43181;BME280;28798;54.950;26.362;2022-09-09T18:43:18;1003.7;;;7.9;70.7
43181;BME280;28798;54.950;26.362;2022-09-09T18:48:28;1003.7;;;7.8;71
43181;BME280;28798;54.950;26.362;2022-09-09T18:53:18;1003.7;;;7.8;71
43181;BME280;28798;54.950;26.362;2022-09-09T18:58:18;1003.7;;;7.8;71
43181;BME280;28798;54.950;26.362;2022-09-09T19:03:18;1003.6;;;7.5;71.9
43181;BME280;28798;54.950;26.362;2022-09-09T19:13:30;1003.6;;;7.4;72.1
43181;BME280;28798;54.950;26.362;2022-09-09T19:18:40;1003.7;;;7.3;72.9
43181;BME280;28798;54.950;26.362;2022-09-09T19:23:18;1003.7;;;7.3;72.9
43181;BME280;28798;54.950;26.362;2022-09-09T19:28:26;1003.7;;;7.3;72.9
43181;BME280;28798;54.950;26.362;2022-09-09T19:33:18;1003.6;;;7;73.7
43181;BME280;28798;54.950;26.362;2022-09-09T19:43:28;1003.7;;;6.9;73.6
43181;BME280;28798;54.950;26.362;2022-09-09T19:48:29;1003.7;;;6.9;73.6
43181;BME280;28798;54.950;26.362;2022-09-09T19:53:28;1003.8;;;6.8;73.8
43181;BME280;28798;54.950;26.362;2022-09-09T19:58:18;1003.8;;;6.8;73.8
43181;BME280;28798;54.950;26.362;2022-09-09T20:03:18;1003.7;;;6.6;74.5
43181;BME280;28798;54.950;26.362;2022-09-09T20:18:26;1003.7;;;6.6;74.5
43181;BME280;28798;54.950;26.362;2022-09-09T20:23:26;1003.7;;;6.4;75.7
43181;BME280;28798;54.950;26.362;2022-09-09T20:28:26;1003.7;;;6.3;76
43181;BME280;28798;54.950;26.362;2022-09-09T20:33:56;1003.7;;;6.3;76
43181;BME280;28798;54.950;26.362;2022-09-09T20:38:30;1003.7;;;6.3;76
43181;BME280;28798;54.950;26.362;2022-09-09T20:43:18;1003.8;;;6.2;76.4
43181;BME280;28798;54.950;26.362;2022-09-09T20:48:19;1003.8;;;6.3;76.6
43181;BME280;28798;54.950;26.362;2022-09-09T20:53:18;1003.8;;;6.3;76.6
43181;BME280;28798;54.950;26.362;2022-09-09T20:58:18;1003.9;;;6.1;76.8
43181;BME280;28798;54.950;26.362;2022-09-09T21:03:18;1003.9;;;6;76.7
43181;BME280;28798;54.950;26.362;2022-09-09T21:13:26;1003.9;;;6;77
43181;BME280;28798;54.950;26.362;2022-09-09T21:18:28;1003.9;;;5.9;77.2
43181;BME280;28798;54.950;26.362;2022-09-09T21:23:18;1004;;;5.8;77.1
43181;BME280;28798;54.950;26.362;2022-09-09T21:28:18;1004;;;5.8;77.1
43181;BME280;28798;54.950;26.362;2022-09-09T21:33:44;1004;;;5.7;77.5
43181;BME280;28798;54.950;26.362;2022-09-09T21:38:30;1004;;;5.7;77.5
43181;BME280;28798;54.950;26.362;2022-09-09T21:43:32;1003.9;;;5.5;78.8
43181;BME280;28798;54.950;26.362;2022-09-09T21:48:18;1003.9;;;5.5;78.9
43181;BME280;28798;54.950;26.362;2022-09-09T21:53:18;1003.8;;;5.4;79.2
43181;BME280;28798;54.950;26.362;2022-09-09T21:58:18;1003.8;;;5.4;79.2
43181;BME280;28798;54.950;26.362;2022-09-09T22:03:18;1003.8;;;5.4;79.3
43181;BME280;28798;54.950;26.362;2022-09-09T22:08:18;1003.8;;;5.4;79.3
43181;BME280;28798;54.950;26.362;2022-09-09T22:13:28;1003.8;;;5.3;79.7
43181;BME280;28798;54.950;26.362;2022-09-09T22:18:36;1003.8;;;5.2;79.8
43181;BME280;28798;54.950;26.362;2022-09-09T22:23:30;1003.8;;;5.2;79.8
43181;BME280;28798;54.950;26.362;2022-09-09T22:28:18;1003.7;;;5.2;80.5
43181;BME280;28798;54.950;26.362;2022-09-09T22:34:08;1003.7;;;5.2;80.5
43181;BME280;28798;54.950;26.362;2022-09-09T22:43:19;1003.7;;;5.1;80.1
43181;BME280;28798;54.950;26.362;2022-09-09T22:48:26;1003.7;;;5.1;80.1
43181;BME280;28798;54.950;26.362;2022-09-09T22:53:48;1003.6;;;5.1;80.5
43181;BME280;28798;54.950;26.362;2022-09-09T22:58:18;1003.6;;;5.1;80.5
43181;BME280;28798;54.950;26.362;2022-09-09T23:03:54;1003.6;;;5.1;80.2
43181;BME280;28798;54.950;26.362;2022-09-09T23:08:18;1003.6;;;5;80.5
43181;BME280;28798;54.950;26.362;2022-09-09T23:13:38;1003.6;;;5;80.5
43181;BME280;28798;54.950;26.362;2022-09-09T23:18:40;1003.5;;;5.1;80.6
43181;BME280;28798;54.950;26.362;2022-09-09T23:23:18;1003.5;;;5;81
43181;BME280;28798;54.950;26.362;2022-09-09T23:28:18;1003.5;;;5;81
43181;BME280;28798;54.950;26.362;2022-09-09T23:33:42;1003.4;;;4.9;81
43181;BME280;28798;54.950;26.362;2022-09-09T23:38:18;1003.4;;;4.9;81
43181;BME280;28798;54.950;26.362;2022-09-09T23:43:26;1003.4;;;4.8;81.1
43181;BME280;28798;54.950;26.362;2022-09-09T23:48:18;1003.6;;;4.8;81.3
43181;BME280;28798;54.950;26.362;2022-09-09T23:53:18;1003.6;;;4.8;81.3
43181;BME280;28798;54.950;26.362;2022-09-09T23:58:26;1003.5;;;4.7;81.5
